sensor_id;sensor_type;location;lat;lon;timestamp;P1;durP1;ratioP1;P2;durP2;ratioP2
17347;SDS011;8791;50.876;4.342;2023-04-24T00:01:02;22.43;;;12.67;;
17347;SDS011;8791;50.876;4.342;2023-04-24T00:03:33;22.53;;;12.07;;
17347;SDS011;8791;50.876;4.342;2023-04-24T00:06:00;20.40;;;11.17;;
17347;SDS011;8791;50.876;4.342;2023-04-24T00:08:27;21.60;;;11.17;;
17347;SDS011;8791;50.876;4.342;2023-04-24T00:10:54;18.93;;;10.57;;
17347;SDS011;8791;50.876;4.342;2023-04-24T00:13:21;23.17;;;11.27;;
17347;SDS011;8791;50.876;4.342;2023-04-24T00:15:48;14.57;;;10.97;;
17347;SDS011;8791;50.876;4.342;2023-04-24T00:18:15;22.27;;;12.13;;
17347;SDS011;8791;50.876;4.342;2023-04-24T00:20:43;26.67;;;11.80;;
17347;SDS011;8791;50.876;4.342;2023-04-24T00:23:11;19.10;;;11.87;;
17347;SDS011;8791;50.876;4.342;2023-04-24T00:25:39;27.00;;;12.43;;
17347;SDS011;8791;50.876;4.342;2023-04-24T00:28:06;22.57;;;11.77;;
17347;SDS011;8791;50.876;4.342;2023-04-24T00:30:33;22.20;;;12.07;;
17347;SDS011;8791;50.876;4.342;2023-04-24T00:33:00;24.57;;;11.70;;
17347;SDS011;8791;50.876;4.342;2023-04-24T00:35:26;20.13;;;12.10;;
17347;SDS011;8791;50.876;4.342;2023-04-24T00:37:55;22.13;;;12.10;;
17347;SDS011;8791;50.876;4.342;2023-04-24T00:40:22;21.90;;;12.07;;
17347;SDS011;8791;50.876;4.342;2023-04-24T00:42:49;18.97;;;11.00;;
17347;SDS011;8791;50.876;4.342;2023-04-24T00:45:16;20.07;;;11.60;;
17347;SDS011;8791;50.876;4.342;2023-04-24T00:47:43;25.73;;;12.73;;
17347;SDS011;8791;50.876;4.342;2023-04-24T00:50:11;19.43;;;11.70;;
17347;SDS011;8791;50.876;4.342;2023-04-24T00:52:40;24.37;;;11.73;;
17347;SDS011;8791;50.876;4.342;2023-04-24T00:55:09;28.97;;;13.07;;
17347;SDS011;8791;50.876;4.342;2023-04-24T00:57:36;25.53;;;12.80;;
17347;SDS011;8791;50.876;4.342;2023-04-24T01:00:03;20.90;;;11.50;;
17347;SDS011;8791;50.876;4.342;2023-04-24T01:02:35;22.63;;;11.57;;
17347;SDS011;8791;50.876;4.342;2023-04-24T01:05:05;24.97;;;12.67;;
17347;SDS011;8791;50.876;4.342;2023-04-24T01:07:33;26.77;;;12.83;;
17347;SDS011;8791;50.876;4.342;2023-04-24T01:10:01;22.33;;;12.43;;
17347;SDS011;8791;50.876;4.342;2023-04-24T01:12:29;28.67;;;12.93;;
17347;SDS011;8791;50.876;4.342;2023-04-24T01:14:56;24.17;;;12.10;;
17347;SDS011;8791;50.876;4.342;2023-04-24T01:17:24;27.53;;;12.80;;
17347;SDS011;8791;50.876;4.342;2023-04-24T01:19:50;27.20;;;12.83;;
17347;SDS011;8791;50.876;4.342;2023-04-24T01:22:20;20.63;;;12.60;;
17347;SDS011;8791;50.876;4.342;2023-04-24T01:24:47;21.77;;;11.90;;
17347;SDS011;8791;50.876;4.342;2023-04-24T01:27:14;27.37;;;11.93;;
17347;SDS011;8791;50.876;4.342;2023-04-24T01:29:41;19.87;;;11.97;;
17347;SDS011;8791;50.876;4.342;2023-04-24T01:32:08;23.03;;;12.70;;
17347;SDS011;8791;50.876;4.342;2023-04-24T01:34:35;22.10;;;12.53;;
17347;SDS011;8791;50.876;4.342;2023-04-24T01:37:03;18.60;;;11.93;;
17347;SDS011;8791;50.876;4.342;2023-04-24T01:39:31;25.33;;;11.67;;
17347;SDS011;8791;50.876;4.342;2023-04-24T01:41:59;23.73;;;11.77;;
17347;SDS011;8791;50.876;4.342;2023-04-24T01:44:27;19.37;;;11.30;;
17347;SDS011;8791;50.876;4.342;2023-04-24T01:46:54;24.40;;;11.07;;
17347;SDS011;8791;50.876;4.342;2023-04-24T01:49:21;21.37;;;10.43;;
17347;SDS011;8791;50.876;4.342;2023-04-24T01:51:48;17.03;;;11.20;;
17347;SDS011;8791;50.876;4.342;2023-04-24T01:54:15;18.50;;;10.83;;
17347;SDS011;8791;50.876;4.342;2023-04-24T01:56:43;15.33;;;11.33;;
17347;SDS011;8791;50.876;4.342;2023-04-24T01:59:12;20.77;;;10.70;;
17347;SDS011;8791;50.876;4.342;2023-04-24T02:01:39;19.93;;;10.87;;
17347;SDS011;8791;50.876;4.342;2023-04-24T02:04:06;22.10;;;11.60;;
17347;SDS011;8791;50.876;4.342;2023-04-24T02:06:33;17.77;;;10.47;;
17347;SDS011;8791;50.876;4.342;2023-04-24T02:09:00;16.73;;;10.63;;
17347;SDS011;8791;50.876;4.342;2023-04-24T02:11:28;20.30;;;10.30;;
17347;SDS011;8791;50.876;4.342;2023-04-24T02:13:56;16.37;;;11.20;;
17347;SDS011;8791;50.876;4.342;2023-04-24T02:16:23;17.97;;;11.20;;
17347;SDS011;8791;50.876;4.342;2023-04-24T02:18:50;19.27;;;10.53;;
17347;SDS011;8791;50.876;4.342;2023-04-24T02:21:17;21.60;;;10.70;;
17347;SDS011;8791;50.876;4.342;2023-04-24T02:23:44;20.77;;;10.90;;
17347;SDS011;8791;50.876;4.342;2023-04-24T02:26:11;14.43;;;10.77;;
17347;SDS011;8791;50.876;4.342;2023-04-24T02:28:37;18.57;;;11.10;;
17347;SDS011;8791;50.876;4.342;2023-04-24T02:31:06;15.93;;;10.23;;
17347;SDS011;8791;50.876;4.342;2023-04-24T02:33:33;17.13;;;11.17;;
17347;SDS011;8791;50.876;4.342;2023-04-24T02:36:00;14.30;;;10.60;;
17347;SDS011;8791;50.876;4.342;2023-04-24T02:38:27;16.40;;;11.00;;
17347;SDS011;8791;50.876;4.342;2023-04-24T02:40:54;22.33;;;10.40;;
17347;SDS011;8791;50.876;4.342;2023-04-24T02:43:21;19.07;;;11.80;;
17347;SDS011;8791;50.876;4.342;2023-04-24T02:45:48;20.80;;;10.73;;
17347;SDS011;8791;50.876;4.342;2023-04-24T02:48:16;16.90;;;10.70;;
17347;SDS011;8791;50.876;4.342;2023-04-24T02:50:45;16.07;;;11.27;;
17347;SDS011;8791;50.876;4.342;2023-04-24T02:53:12;14.67;;;10.70;;
17347;SDS011;8791;50.876;4.342;2023-04-24T02:55:39;20.00;;;11.33;;
17347;SDS011;8791;50.876;4.342;2023-04-24T02:58:06;17.17;;;11.27;;
17347;SDS011;8791;50.876;4.342;2023-04-24T03:00:33;16.30;;;11.30;;
17347;SDS011;8791;50.876;4.342;2023-04-24T03:03:00;13.07;;;10.27;;
17347;SDS011;8791;50.876;4.342;2023-04-24T03:05:29;19.53;;;11.17;;
17347;SDS011;8791;50.876;4.342;2023-04-24T03:07:56;20.47;;;11.43;;
17347;SDS011;8791;50.876;4.342;2023-04-24T03:10:23;17.53;;;10.77;;
17347;SDS011;8791;50.876;4.342;2023-04-24T03:12:50;17.97;;;10.43;;
17347;SDS011;8791;50.876;4.342;2023-04-24T03:15:17;18.57;;;11.60;;
17347;SDS011;8791;50.876;4.342;2023-04-24T03:17:44;17.47;;;11.17;;
17347;SDS011;8791;50.876;4.342;2023-04-24T03:20:11;18.70;;;10.37;;
17347;SDS011;8791;50.876;4.342;2023-04-24T03:22:41;17.50;;;10.80;;
17347;SDS011;8791;50.876;4.342;2023-04-24T03:25:08;17.77;;;11.03;;
17347;SDS011;8791;50.876;4.342;2023-04-24T03:27:35;17.70;;;10.80;;
17347;SDS011;8791;50.876;4.342;2023-04-24T03:30:02;17.60;;;9.53;;
17347;SDS011;8791;50.876;4.342;2023-04-24T03:32:29;12.63;;;8.73;;
17347;SDS011;8791;50.876;4.342;2023-04-24T03:34:57;14.60;;;8.77;;
17347;SDS011;8791;50.876;4.342;2023-04-24T03:37:24;12.00;;;9.17;;
17347;SDS011;8791;50.876;4.342;2023-04-24T03:39:53;11.37;;;8.80;;
17347;SDS011;8791;50.876;4.342;2023-04-24T03:42:19;11.77;;;8.57;;
17347;SDS011;8791;50.876;4.342;2023-04-24T03:44:46;12.60;;;8.33;;
17347;SDS011;8791;50.876;4.342;2023-04-24T03:47:13;13.60;;;8.40;;
17347;SDS011;8791;50.876;4.342;2023-04-24T03:49:40;13.93;;;8.77;;
17347;SDS011;8791;50.876;4.342;2023-04-24T03:52:07;11.00;;;8.47;;
17347;SDS011;8791;50.876;4.342;2023-04-24T03:54:34;16.43;;;9.70;;
17347;SDS011;8791;50.876;4.342;2023-04-24T03:57:02;10.17;;;8.23;;
17347;SDS011;8791;50.876;4.342;2023-04-24T03:59:29;10.90;;;8.40;;
17347;SDS011;8791;50.876;4.342;2023-04-24T04:01:56;10.90;;;8.30;;
17347;SDS011;8791;50.876;4.342;2023-04-24T04:04:23;10.57;;;7.33;;
17347;SDS011;8791;50.876;4.342;2023-04-24T04:06:50;10.73;;;7.80;;
17347;SDS011;8791;50.876;4.342;2023-04-24T04:09:18;11.33;;;7.47;;
17347;SDS011;8791;50.876;4.342;2023-04-24T04:11:45;9.43;;;7.33;;
17347;SDS011;8791;50.876;4.342;2023-04-24T04:14:13;7.73;;;6.87;;
17347;SDS011;8791;50.876;4.342;2023-04-24T04:16:40;7.93;;;7.00;;
17347;SDS011;8791;50.876;4.342;2023-04-24T04:19:07;8.57;;;7.77;;
17347;SDS011;8791;50.876;4.342;2023-04-24T04:21:34;8.17;;;7.37;;
17347;SDS011;8791;50.876;4.342;2023-04-24T04:24:01;9.40;;;7.13;;
17347;SDS011;8791;50.876;4.342;2023-04-24T04:26:27;7.70;;;6.90;;
17347;SDS011;8791;50.876;4.342;2023-04-24T04:28:57;10.03;;;7.43;;
17347;SDS011;8791;50.876;4.342;2023-04-24T04:31:27;8.10;;;7.10;;
17347;SDS011;8791;50.876;4.342;2023-04-24T04:33:54;9.37;;;7.00;;
17347;SDS011;8791;50.876;4.342;2023-04-24T04:36:21;13.20;;;6.90;;
17347;SDS011;8791;50.876;4.342;2023-04-24T04:38:49;9.17;;;6.70;;
17347;SDS011;8791;50.876;4.342;2023-04-24T04:41:16;13.37;;;6.23;;
17347;SDS011;8791;50.876;4.342;2023-04-24T04:43:43;10.83;;;7.17;;
17347;SDS011;8791;50.876;4.342;2023-04-24T04:46:11;8.90;;;6.83;;
17347;SDS011;8791;50.876;4.342;2023-04-24T04:48:39;10.97;;;7.47;;
17347;SDS011;8791;50.876;4.342;2023-04-24T04:51:06;16.67;;;7.67;;
17347;SDS011;8791;50.876;4.342;2023-04-24T04:53:33;9.47;;;8.07;;
17347;SDS011;8791;50.876;4.342;2023-04-24T04:56:01;12.37;;;8.90;;
17347;SDS011;8791;50.876;4.342;2023-04-24T04:58:28;11.57;;;8.60;;
17347;SDS011;8791;50.876;4.342;2023-04-24T05:00:55;15.83;;;9.77;;
17347;SDS011;8791;50.876;4.342;2023-04-24T05:03:23;20.37;;;9.97;;
17347;SDS011;8791;50.876;4.342;2023-04-24T05:05:51;15.97;;;10.30;;
17347;SDS011;8791;50.876;4.342;2023-04-24T05:08:18;19.47;;;10.83;;
17347;SDS011;8791;50.876;4.342;2023-04-24T05:10:45;18.83;;;11.43;;
17347;SDS011;8791;50.876;4.342;2023-04-24T05:13:12;19.87;;;10.30;;
17347;SDS011;8791;50.876;4.342;2023-04-24T05:15:40;16.77;;;10.97;;
17347;SDS011;8791;50.876;4.342;2023-04-24T05:18:07;18.87;;;11.27;;
17347;SDS011;8791;50.876;4.342;2023-04-24T05:20:34;23.43;;;12.00;;
17347;SDS011;8791;50.876;4.342;2023-04-24T05:23:03;30.27;;;13.33;;
17347;SDS011;8791;50.876;4.342;2023-04-24T05:25:30;23.10;;;12.07;;
17347;SDS011;8791;50.876;4.342;2023-04-24T05:28:00;21.70;;;11.13;;
17347;SDS011;8791;50.876;4.342;2023-04-24T05:30:27;22.07;;;11.40;;
17347;SDS011;8791;50.876;4.342;2023-04-24T05:32:54;21.30;;;12.00;;
17347;SDS011;8791;50.876;4.342;2023-04-24T05:35:22;19.90;;;11.53;;
17347;SDS011;8791;50.876;4.342;2023-04-24T05:37:48;16.63;;;11.90;;
17347;SDS011;8791;50.876;4.342;2023-04-24T05:40:17;19.10;;;11.27;;
17347;SDS011;8791;50.876;4.342;2023-04-24T05:42:44;16.23;;;11.20;;
17347;SDS011;8791;50.876;4.342;2023-04-24T05:45:11;15.47;;;10.63;;
17347;SDS011;8791;50.876;4.342;2023-04-24T05:47:41;21.07;;;12.30;;
17347;SDS011;8791;50.876;4.342;2023-04-24T05:50:09;21.00;;;11.77;;
17347;SDS011;8791;50.876;4.342;2023-04-24T05:52:36;21.53;;;12.73;;
17347;SDS011;8791;50.876;4.342;2023-04-24T05:55:03;23.60;;;12.93;;
17347;SDS011;8791;50.876;4.342;2023-04-24T05:57:32;20.90;;;12.37;;
17347;SDS011;8791;50.876;4.342;2023-04-24T05:59:59;25.13;;;12.53;;
17347;SDS011;8791;50.876;4.342;2023-04-24T06:02:26;22.37;;;12.43;;
17347;SDS011;8791;50.876;4.342;2023-04-24T06:04:57;20.83;;;12.13;;
17347;SDS011;8791;50.876;4.342;2023-04-24T06:07:24;18.17;;;12.13;;
17347;SDS011;8791;50.876;4.342;2023-04-24T06:09:52;18.47;;;11.50;;
17347;SDS011;8791;50.876;4.342;2023-04-24T06:12:19;17.97;;;12.23;;
17347;SDS011;8791;50.876;4.342;2023-04-24T06:14:47;24.70;;;13.07;;
17347;SDS011;8791;50.876;4.342;2023-04-24T06:17:15;19.20;;;12.50;;
17347;SDS011;8791;50.876;4.342;2023-04-24T06:19:42;22.50;;;12.43;;
17347;SDS011;8791;50.876;4.342;2023-04-24T06:22:09;18.07;;;12.30;;
17347;SDS011;8791;50.876;4.342;2023-04-24T06:24:36;23.37;;;12.63;;
17347;SDS011;8791;50.876;4.342;2023-04-24T06:27:03;26.20;;;13.37;;
17347;SDS011;8791;50.876;4.342;2023-04-24T06:29:30;23.00;;;12.87;;
17347;SDS011;8791;50.876;4.342;2023-04-24T06:31:59;27.03;;;13.70;;
17347;SDS011;8791;50.876;4.342;2023-04-24T06:34:28;26.27;;;13.37;;
17347;SDS011;8791;50.876;4.342;2023-04-24T06:36:55;25.03;;;13.77;;
17347;SDS011;8791;50.876;4.342;2023-04-24T06:39:23;31.70;;;14.40;;
17347;SDS011;8791;50.876;4.342;2023-04-24T06:41:50;24.20;;;13.27;;
17347;SDS011;8791;50.876;4.342;2023-04-24T06:44:17;27.33;;;13.87;;
17347;SDS011;8791;50.876;4.342;2023-04-24T06:46:44;30.00;;;14.73;;
17347;SDS011;8791;50.876;4.342;2023-04-24T06:49:12;23.77;;;13.57;;
17347;SDS011;8791;50.876;4.342;2023-04-24T06:51:41;29.93;;;15.37;;
17347;SDS011;8791;50.876;4.342;2023-04-24T06:54:08;31.87;;;15.17;;
17347;SDS011;8791;50.876;4.342;2023-04-24T06:56:34;25.07;;;14.93;;
17347;SDS011;8791;50.876;4.342;2023-04-24T06:59:02;26.33;;;14.40;;
17347;SDS011;8791;50.876;4.342;2023-04-24T07:01:29;26.60;;;15.70;;
17347;SDS011;8791;50.876;4.342;2023-04-24T07:03:56;37.57;;;16.07;;
17347;SDS011;8791;50.876;4.342;2023-04-24T07:06:25;30.83;;;15.17;;
17347;SDS011;8791;50.876;4.342;2023-04-24T07:08:52;26.83;;;14.87;;
17347;SDS011;8791;50.876;4.342;2023-04-24T07:11:21;28.07;;;15.07;;
17347;SDS011;8791;50.876;4.342;2023-04-24T07:13:48;34.10;;;15.43;;
17347;SDS011;8791;50.876;4.342;2023-04-24T07:16:15;26.47;;;14.10;;
17347;SDS011;8791;50.876;4.342;2023-04-24T07:18:42;30.93;;;13.30;;
17347;SDS011;8791;50.876;4.342;2023-04-24T07:21:09;27.33;;;13.30;;
17347;SDS011;8791;50.876;4.342;2023-04-24T07:23:38;25.47;;;13.13;;
17347;SDS011;8791;50.876;4.342;2023-04-24T07:26:06;20.43;;;12.47;;
17347;SDS011;8791;50.876;4.342;2023-04-24T07:28:33;22.53;;;12.20;;
17347;SDS011;8791;50.876;4.342;2023-04-24T07:31:00;22.33;;;12.17;;
17347;SDS011;8791;50.876;4.342;2023-04-24T07:33:27;24.67;;;10.53;;
17347;SDS011;8791;50.876;4.342;2023-04-24T07:35:54;21.47;;;9.37;;
17347;SDS011;8791;50.876;4.342;2023-04-24T07:38:21;19.60;;;10.10;;
17347;SDS011;8791;50.876;4.342;2023-04-24T07:40:52;12.93;;;9.03;;
17347;SDS011;8791;50.876;4.342;2023-04-24T07:43:19;12.47;;;9.13;;
17347;SDS011;8791;50.876;4.342;2023-04-24T07:45:46;14.13;;;7.33;;
17347;SDS011;8791;50.876;4.342;2023-04-24T07:48:13;14.47;;;8.47;;
17347;SDS011;8791;50.876;4.342;2023-04-24T07:50:41;15.77;;;9.27;;
17347;SDS011;8791;50.876;4.342;2023-04-24T07:53:08;21.50;;;10.03;;
17347;SDS011;8791;50.876;4.342;2023-04-24T07:55:35;21.40;;;10.97;;
17347;SDS011;8791;50.876;4.342;2023-04-24T07:58:03;16.77;;;10.37;;
17347;SDS011;8791;50.876;4.342;2023-04-24T08:00:30;26.30;;;11.03;;
17347;SDS011;8791;50.876;4.342;2023-04-24T08:02:57;23.37;;;11.07;;
17347;SDS011;8791;50.876;4.342;2023-04-24T08:05:24;19.33;;;10.10;;
17347;SDS011;8791;50.876;4.342;2023-04-24T08:07:53;15.70;;;9.17;;
17347;SDS011;8791;50.876;4.342;2023-04-24T08:10:20;21.70;;;9.37;;
17347;SDS011;8791;50.876;4.342;2023-04-24T08:12:47;24.40;;;9.20;;
17347;SDS011;8791;50.876;4.342;2023-04-24T08:15:15;24.13;;;8.70;;
17347;SDS011;8791;50.876;4.342;2023-04-24T08:17:42;20.00;;;9.10;;
17347;SDS011;8791;50.876;4.342;2023-04-24T08:20:10;18.60;;;8.20;;
17347;SDS011;8791;50.876;4.342;2023-04-24T08:22:38;20.20;;;8.07;;
17347;SDS011;8791;50.876;4.342;2023-04-24T08:25:05;19.77;;;7.33;;
17347;SDS011;8791;50.876;4.342;2023-04-24T08:27:33;15.77;;;6.93;;
17347;SDS011;8791;50.876;4.342;2023-04-24T08:30:01;16.97;;;7.10;;
17347;SDS011;8791;50.876;4.342;2023-04-24T08:32:30;19.63;;;8.10;;
17347;SDS011;8791;50.876;4.342;2023-04-24T08:34:57;14.17;;;7.20;;
17347;SDS011;8791;50.876;4.342;2023-04-24T08:37:25;16.40;;;6.53;;
17347;SDS011;8791;50.876;4.342;2023-04-24T08:39:53;21.07;;;6.73;;
17347;SDS011;8791;50.876;4.342;2023-04-24T08:42:20;19.87;;;6.97;;
17347;SDS011;8791;50.876;4.342;2023-04-24T08:44:48;13.30;;;6.33;;
17347;SDS011;8791;50.876;4.342;2023-04-24T08:47:15;17.53;;;6.37;;
17347;SDS011;8791;50.876;4.342;2023-04-24T08:49:44;15.00;;;6.17;;
17347;SDS011;8791;50.876;4.342;2023-04-24T08:52:14;14.60;;;6.37;;
17347;SDS011;8791;50.876;4.342;2023-04-24T08:54:42;20.53;;;5.60;;
17347;SDS011;8791;50.876;4.342;2023-04-24T08:57:11;16.70;;;5.70;;
17347;SDS011;8791;50.876;4.342;2023-04-24T08:59:39;11.00;;;4.83;;
17347;SDS011;8791;50.876;4.342;2023-04-24T09:02:08;16.03;;;5.43;;
17347;SDS011;8791;50.876;4.342;2023-04-24T09:04:36;15.77;;;4.77;;
17347;SDS011;8791;50.876;4.342;2023-04-24T09:07:05;7.77;;;4.27;;
17347;SDS011;8791;50.876;4.342;2023-04-24T09:09:34;11.70;;;4.97;;
17347;SDS011;8791;50.876;4.342;2023-04-24T09:12:01;13.60;;;4.73;;
17347;SDS011;8791;50.876;4.342;2023-04-24T09:14:29;8.83;;;4.17;;
17347;SDS011;8791;50.876;4.342;2023-04-24T09:16:57;10.20;;;4.20;;
17347;SDS011;8791;50.876;4.342;2023-04-24T09:19:24;11.67;;;3.90;;
17347;SDS011;8791;50.876;4.342;2023-04-24T09:21:50;13.40;;;4.00;;
17347;SDS011;8791;50.876;4.342;2023-04-24T09:24:21;10.67;;;3.60;;
17347;SDS011;8791;50.876;4.342;2023-04-24T09:26:48;8.80;;;3.80;;
17347;SDS011;8791;50.876;4.342;2023-04-24T09:29:22;7.60;;;4.37;;
17347;SDS011;8791;50.876;4.342;2023-04-24T09:31:49;10.03;;;3.93;;
17347;SDS011;8791;50.876;4.342;2023-04-24T09:34:20;10.03;;;3.97;;
17347;SDS011;8791;50.876;4.342;2023-04-24T09:36:47;11.97;;;4.03;;
17347;SDS011;8791;50.876;4.342;2023-04-24T09:39:15;9.27;;;3.77;;
17347;SDS011;8791;50.876;4.342;2023-04-24T09:41:46;13.27;;;4.60;;
17347;SDS011;8791;50.876;4.342;2023-04-24T09:44:15;8.43;;;4.07;;
17347;SDS011;8791;50.876;4.342;2023-04-24T09:46:43;12.03;;;3.97;;
17347;SDS011;8791;50.876;4.342;2023-04-24T09:49:12;10.97;;;4.03;;
17347;SDS011;8791;50.876;4.342;2023-04-24T09:51:42;15.00;;;4.57;;
17347;SDS011;8791;50.876;4.342;2023-04-24T09:54:16;12.60;;;4.10;;
17347;SDS011;8791;50.876;4.342;2023-04-24T09:56:47;14.40;;;3.67;;
17347;SDS011;8791;50.876;4.342;2023-04-24T09:59:15;8.60;;;3.63;;
17347;SDS011;8791;50.876;4.342;2023-04-24T10:01:43;7.53;;;3.40;;
17347;SDS011;8791;50.876;4.342;2023-04-24T10:04:17;7.20;;;3.57;;
17347;SDS011;8791;50.876;4.342;2023-04-24T10:06:45;8.53;;;3.67;;
17347;SDS011;8791;50.876;4.342;2023-04-24T10:09:14;7.47;;;3.27;;
17347;SDS011;8791;50.876;4.342;2023-04-24T10:11:42;5.50;;;3.40;;
17347;SDS011;8791;50.876;4.342;2023-04-24T10:14:12;12.20;;;4.10;;
17347;SDS011;8791;50.876;4.342;2023-04-24T10:16:39;9.90;;;3.77;;
17347;SDS011;8791;50.876;4.342;2023-04-24T10:19:06;5.57;;;2.93;;
17347;SDS011;8791;50.876;4.342;2023-04-24T10:21:34;6.90;;;3.27;;
17347;SDS011;8791;50.876;4.342;2023-04-24T10:24:03;7.03;;;3.60;;
17347;SDS011;8791;50.876;4.342;2023-04-24T10:26:32;12.03;;;3.83;;
17347;SDS011;8791;50.876;4.342;2023-04-24T10:29:00;7.10;;;3.60;;
17347;SDS011;8791;50.876;4.342;2023-04-24T10:31:31;9.10;;;3.60;;
17347;SDS011;8791;50.876;4.342;2023-04-24T10:33:58;7.20;;;3.60;;
17347;SDS011;8791;50.876;4.342;2023-04-24T10:36:27;10.40;;;3.63;;
17347;SDS011;8791;50.876;4.342;2023-04-24T10:38:58;6.17;;;3.60;;
17347;SDS011;8791;50.876;4.342;2023-04-24T10:41:26;6.73;;;3.83;;
17347;SDS011;8791;50.876;4.342;2023-04-24T10:44:06;5.47;;;3.70;;
17347;SDS011;8791;50.876;4.342;2023-04-24T10:46:35;6.70;;;3.33;;
17347;SDS011;8791;50.876;4.342;2023-04-24T10:49:03;7.50;;;3.80;;
17347;SDS011;8791;50.876;4.342;2023-04-24T10:51:44;9.80;;;3.70;;
17347;SDS011;8791;50.876;4.342;2023-04-24T10:54:25;9.03;;;3.67;;
17347;SDS011;8791;50.876;4.342;2023-04-24T10:56:53;8.13;;;3.63;;
17347;SDS011;8791;50.876;4.342;2023-04-24T11:00:14;10.10;;;3.50;;
17347;SDS011;8791;50.876;4.342;2023-04-24T11:02:45;6.23;;;3.67;;
17347;SDS011;8791;50.876;4.342;2023-04-24T11:05:18;6.83;;;3.90;;
17347;SDS011;8791;50.876;4.342;2023-04-24T11:10:43;11.97;;;4.17;;
17347;SDS011;8791;50.876;4.342;2023-04-24T11:13:10;9.27;;;3.63;;
17347;SDS011;8791;50.876;4.342;2023-04-24T11:15:41;5.53;;;4.07;;
17347;SDS011;8791;50.876;4.342;2023-04-24T11:18:13;3.40;;;3.10;;
17347;SDS011;8791;50.876;4.342;2023-04-24T11:20:41;9.13;;;4.00;;
17347;SDS011;8791;50.876;4.342;2023-04-24T11:23:09;8.43;;;3.53;;
17347;SDS011;8791;50.876;4.342;2023-04-24T11:25:39;4.60;;;3.57;;
17347;SDS011;8791;50.876;4.342;2023-04-24T11:28:07;5.87;;;3.93;;
17347;SDS011;8791;50.876;4.342;2023-04-24T11:30:40;5.20;;;3.90;;
17347;SDS011;8791;50.876;4.342;2023-04-24T11:33:07;7.93;;;3.83;;
17347;SDS011;8791;50.876;4.342;2023-04-24T11:35:38;6.47;;;4.07;;
17347;SDS011;8791;50.876;4.342;2023-04-24T11:38:06;6.37;;;4.33;;
17347;SDS011;8791;50.876;4.342;2023-04-24T11:40:33;6.77;;;3.90;;
17347;SDS011;8791;50.876;4.342;2023-04-24T11:43:01;6.33;;;4.20;;
17347;SDS011;8791;50.876;4.342;2023-04-24T11:45:30;8.97;;;4.10;;
17347;SDS011;8791;50.876;4.342;2023-04-24T11:47:57;9.70;;;4.67;;
17347;SDS011;8791;50.876;4.342;2023-04-24T11:50:25;7.27;;;4.33;;
17347;SDS011;8791;50.876;4.342;2023-04-24T11:52:55;7.23;;;4.90;;
17347;SDS011;8791;50.876;4.342;2023-04-24T11:55:23;6.00;;;4.40;;
17347;SDS011;8791;50.876;4.342;2023-04-24T11:57:53;9.00;;;4.10;;
17347;SDS011;8791;50.876;4.342;2023-04-24T12:00:23;9.73;;;5.43;;
17347;SDS011;8791;50.876;4.342;2023-04-24T12:02:50;5.90;;;4.83;;
17347;SDS011;8791;50.876;4.342;2023-04-24T12:05:20;8.67;;;4.20;;
17347;SDS011;8791;50.876;4.342;2023-04-24T12:07:48;7.40;;;4.23;;
17347;SDS011;8791;50.876;4.342;2023-04-24T12:10:19;9.30;;;3.93;;
17347;SDS011;8791;50.876;4.342;2023-04-24T12:12:47;6.17;;;3.53;;
17347;SDS011;8791;50.876;4.342;2023-04-24T12:15:15;8.00;;;3.80;;
17347;SDS011;8791;50.876;4.342;2023-04-24T12:17:43;9.93;;;4.70;;
17347;SDS011;8791;50.876;4.342;2023-04-24T12:20:10;5.23;;;3.70;;
17347;SDS011;8791;50.876;4.342;2023-04-24T12:22:42;7.50;;;4.27;;
17347;SDS011;8791;50.876;4.342;2023-04-24T12:25:11;9.17;;;3.40;;
17347;SDS011;8791;50.876;4.342;2023-04-24T12:27:40;6.33;;;3.67;;
17347;SDS011;8791;50.876;4.342;2023-04-24T12:30:09;9.33;;;3.53;;
17347;SDS011;8791;50.876;4.342;2023-04-24T12:32:40;4.83;;;3.23;;
17347;SDS011;8791;50.876;4.342;2023-04-24T12:35:08;6.50;;;3.50;;
17347;SDS011;8791;50.876;4.342;2023-04-24T12:37:35;8.33;;;3.57;;
17347;SDS011;8791;50.876;4.342;2023-04-24T12:40:05;4.20;;;3.03;;
17347;SDS011;8791;50.876;4.342;2023-04-24T12:42:33;7.87;;;3.13;;
17347;SDS011;8791;50.876;4.342;2023-04-24T12:45:03;6.70;;;3.30;;
17347;SDS011;8791;50.876;4.342;2023-04-24T12:47:32;3.93;;;2.97;;
17347;SDS011;8791;50.876;4.342;2023-04-24T12:49:59;7.57;;;3.40;;
17347;SDS011;8791;50.876;4.342;2023-04-24T12:52:28;6.67;;;3.40;;
17347;SDS011;8791;50.876;4.342;2023-04-24T12:54:56;4.93;;;3.07;;
17347;SDS011;8791;50.876;4.342;2023-04-24T12:57:25;6.97;;;3.33;;
17347;SDS011;8791;50.876;4.342;2023-04-24T12:59:53;8.83;;;3.50;;
17347;SDS011;8791;50.876;4.342;2023-04-24T13:02:22;4.60;;;3.30;;
17347;SDS011;8791;50.876;4.342;2023-04-24T13:04:49;7.40;;;3.10;;
17347;SDS011;8791;50.876;4.342;2023-04-24T13:07:16;8.07;;;3.23;;
17347;SDS011;8791;50.876;4.342;2023-04-24T13:09:44;5.07;;;2.90;;
17347;SDS011;8791;50.876;4.342;2023-04-24T13:12:11;6.50;;;3.03;;
17347;SDS011;8791;50.876;4.342;2023-04-24T13:14:40;5.03;;;2.93;;
17347;SDS011;8791;50.876;4.342;2023-04-24T13:17:07;7.80;;;2.97;;
17347;SDS011;8791;50.876;4.342;2023-04-24T13:19:39;6.20;;;3.00;;
17347;SDS011;8791;50.876;4.342;2023-04-24T13:22:08;4.27;;;2.90;;
17347;SDS011;8791;50.876;4.342;2023-04-24T13:24:36;4.67;;;2.40;;
17347;SDS011;8791;50.876;4.342;2023-04-24T13:27:04;7.83;;;3.00;;
17347;SDS011;8791;50.876;4.342;2023-04-24T13:29:31;6.37;;;3.10;;
17347;SDS011;8791;50.876;4.342;2023-04-24T13:31:58;4.23;;;2.70;;
17347;SDS011;8791;50.876;4.342;2023-04-24T13:34:26;5.80;;;2.70;;
17347;SDS011;8791;50.876;4.342;2023-04-24T13:36:55;3.73;;;2.53;;
17347;SDS011;8791;50.876;4.342;2023-04-24T13:39:23;4.77;;;2.53;;
17347;SDS011;8791;50.876;4.342;2023-04-24T13:41:50;3.97;;;2.67;;
17347;SDS011;8791;50.876;4.342;2023-04-24T13:44:18;4.30;;;2.33;;
17347;SDS011;8791;50.876;4.342;2023-04-24T13:46:46;4.07;;;2.20;;
17347;SDS011;8791;50.876;4.342;2023-04-24T13:49:14;3.73;;;2.17;;
17347;SDS011;8791;50.876;4.342;2023-04-24T13:51:42;4.50;;;2.30;;
17347;SDS011;8791;50.876;4.342;2023-04-24T13:54:12;2.90;;;2.03;;
17347;SDS011;8791;50.876;4.342;2023-04-24T13:56:39;3.23;;;1.80;;
17347;SDS011;8791;50.876;4.342;2023-04-24T13:59:06;3.33;;;1.73;;
17347;SDS011;8791;50.876;4.342;2023-04-24T14:01:33;3.23;;;1.80;;
17347;SDS011;8791;50.876;4.342;2023-04-24T14:04:01;3.60;;;1.57;;
17347;SDS011;8791;50.876;4.342;2023-04-24T14:06:27;2.57;;;1.67;;
17347;SDS011;8791;50.876;4.342;2023-04-24T14:08:54;3.67;;;1.83;;
17347;SDS011;8791;50.876;4.342;2023-04-24T14:11:23;3.57;;;1.80;;
17347;SDS011;8791;50.876;4.342;2023-04-24T14:13:50;3.43;;;1.90;;
17347;SDS011;8791;50.876;4.342;2023-04-24T14:16:17;2.47;;;1.90;;
17347;SDS011;8791;50.876;4.342;2023-04-24T14:18:43;5.30;;;2.00;;
17347;SDS011;8791;50.876;4.342;2023-04-24T14:21:10;3.47;;;2.13;;
17347;SDS011;8791;50.876;4.342;2023-04-24T14:23:37;8.80;;;1.80;;
17347;SDS011;8791;50.876;4.342;2023-04-24T14:26:04;6.77;;;1.90;;
17347;SDS011;8791;50.876;4.342;2023-04-24T14:46:13;4.87;;;2.00;;
17347;SDS011;8791;50.876;4.342;2023-04-24T14:55:22;2.97;;;1.70;;
17347;SDS011;8791;50.876;4.342;2023-04-24T14:58:08;4.40;;;1.60;;
17347;SDS011;8791;50.876;4.342;2023-04-24T15:00:45;5.60;;;2.43;;
17347;SDS011;8791;50.876;4.342;2023-04-24T15:06:26;5.80;;;1.93;;
17347;SDS011;8791;50.876;4.342;2023-04-24T15:09:02;3.60;;;1.50;;
17347;SDS011;8791;50.876;4.342;2023-04-24T15:14:48;3.07;;;1.80;;
17347;SDS011;8791;50.876;4.342;2023-04-24T15:18:11;4.47;;;1.43;;
17347;SDS011;8791;50.876;4.342;2023-04-24T15:21:19;3.00;;;1.40;;
17347;SDS011;8791;50.876;4.342;2023-04-24T15:24:20;5.07;;;1.70;;
17347;SDS011;8791;50.876;4.342;2023-04-24T15:26:47;2.53;;;1.90;;
17347;SDS011;8791;50.876;4.342;2023-04-24T15:29:14;3.57;;;1.30;;